sensor_id;sensor_type;location;lat;lon;timestamp;P1;durP1;ratioP1;P2;durP2;ratioP2
44204;SDS011;30163;42.698;23.344;2022-10-22T00:00:41;81.38;;;44.20;;
44204;SDS011;30163;42.698;23.344;2022-10-22T00:03:06;85.00;;;43.45;;
44204;SDS011;30163;42.698;23.344;2022-10-22T00:05:32;105.72;;;46.80;;
44204;SDS011;30163;42.698;23.344;2022-10-22T00:07:57;88.00;;;43.47;;
44204;SDS011;30163;42.698;23.344;2022-10-22T00:10:23;95.93;;;42.97;;
44204;SDS011;30163;42.698;23.344;2022-10-22T00:12:48;93.32;;;43.55;;
44204;SDS011;30163;42.698;23.344;2022-10-22T00:15:13;93.07;;;43.08;;
44204;SDS011;30163;42.698;23.344;2022-10-22T00:17:39;83.38;;;41.00;;
44204;SDS011;30163;42.698;23.344;2022-10-22T00:20:04;89.93;;;42.95;;
44204;SDS011;30163;42.698;23.344;2022-10-22T00:22:30;108.50;;;44.95;;
44204;SDS011;30163;42.698;23.344;2022-10-22T00:24:56;91.45;;;43.63;;
44204;SDS011;30163;42.698;23.344;2022-10-22T00:27:21;87.97;;;42.80;;
44204;SDS011;30163;42.698;23.344;2022-10-22T00:29:46;97.80;;;43.55;;
44204;SDS011;30163;42.698;23.344;2022-10-22T00:32:12;101.72;;;43.38;;
44204;SDS011;30163;42.698;23.344;2022-10-22T00:34:39;95.80;;;44.78;;
44204;SDS011;30163;42.698;23.344;2022-10-22T00:37:04;89.40;;;43.85;;
44204;SDS011;30163;42.698;23.344;2022-10-22T00:39:30;88.40;;;42.75;;
44204;SDS011;30163;42.698;23.344;2022-10-22T00:41:56;95.38;;;45.30;;
44204;SDS011;30163;42.698;23.344;2022-10-22T00:47:26;95.22;;;44.38;;
44204;SDS011;30163;42.698;23.344;2022-10-22T00:49:53;104.32;;;46.00;;
44204;SDS011;30163;42.698;23.344;2022-10-22T00:52:19;99.35;;;45.97;;
44204;SDS011;30163;42.698;23.344;2022-10-22T00:54:44;91.13;;;45.22;;
44204;SDS011;30163;42.698;23.344;2022-10-22T00:57:09;104.10;;;46.00;;
44204;SDS011;30163;42.698;23.344;2022-10-22T00:59:35;105.22;;;47.83;;
44204;SDS011;30163;42.698;23.344;2022-10-22T01:02:01;94.45;;;44.00;;
44204;SDS011;30163;42.698;23.344;2022-10-22T01:04:27;90.88;;;45.67;;
44204;SDS011;30163;42.698;23.344;2022-10-22T01:06:52;96.07;;;45.60;;
44204;SDS011;30163;42.698;23.344;2022-10-22T01:12:00;91.88;;;42.53;;
44204;SDS011;30163;42.698;23.344;2022-10-22T01:17:09;96.28;;;45.25;;
44204;SDS011;30163;42.698;23.344;2022-10-22T01:22:09;94.57;;;46.28;;
44204;SDS011;30163;42.698;23.344;2022-10-22T01:24:39;98.90;;;45.67;;
44204;SDS011;30163;42.698;23.344;2022-10-22T01:27:14;100.53;;;47.10;;
44204;SDS011;30163;42.698;23.344;2022-10-22T01:32:14;91.22;;;44.47;;
44204;SDS011;30163;42.698;23.344;2022-10-22T01:34:42;98.72;;;45.38;;
44204;SDS011;30163;42.698;23.344;2022-10-22T01:37:09;110.30;;;45.58;;
44204;SDS011;30163;42.698;23.344;2022-10-22T01:39:36;98.15;;;45.42;;
44204;SDS011;30163;42.698;23.344;2022-10-22T01:42:03;91.15;;;42.67;;
44204;SDS011;30163;42.698;23.344;2022-10-22T01:44:32;92.18;;;44.70;;
44204;SDS011;30163;42.698;23.344;2022-10-22T01:47:05;95.65;;;45.63;;
44204;SDS011;30163;42.698;23.344;2022-10-22T01:49:58;112.47;;;46.70;;
44204;SDS011;30163;42.698;23.344;2022-10-22T02:00:26;99.15;;;46.17;;
44204;SDS011;30163;42.698;23.344;2022-10-22T02:02:59;114.00;;;45.63;;
44204;SDS011;30163;42.698;23.344;2022-10-22T02:05:29;94.70;;;45.90;;
44204;SDS011;30163;42.698;23.344;2022-10-22T02:08:07;102.30;;;45.35;;
44204;SDS011;30163;42.698;23.344;2022-10-22T02:10:37;105.38;;;47.00;;
44204;SDS011;30163;42.698;23.344;2022-10-22T02:13:06;93.97;;;48.20;;
44204;SDS011;30163;42.698;23.344;2022-10-22T02:15:32;108.78;;;47.33;;
44204;SDS011;30163;42.698;23.344;2022-10-22T02:17:59;111.78;;;45.70;;
44204;SDS011;30163;42.698;23.344;2022-10-22T02:20:29;100.50;;;45.97;;
44204;SDS011;30163;42.698;23.344;2022-10-22T02:22:56;101.82;;;44.95;;
44204;SDS011;30163;42.698;23.344;2022-10-22T02:25:24;88.95;;;44.80;;
44204;SDS011;30163;42.698;23.344;2022-10-22T02:31:16;102.90;;;47.00;;
44204;SDS011;30163;42.698;23.344;2022-10-22T02:33:45;100.25;;;46.53;;
44204;SDS011;30163;42.698;23.344;2022-10-22T02:36:13;97.10;;;48.10;;
44204;SDS011;30163;42.698;23.344;2022-10-22T02:38:39;115.07;;;54.35;;
44204;SDS011;30163;42.698;23.344;2022-10-22T02:41:05;110.03;;;48.90;;
44204;SDS011;30163;42.698;23.344;2022-10-22T02:43:37;108.80;;;46.55;;
44204;SDS011;30163;42.698;23.344;2022-10-22T02:46:06;117.28;;;49.75;;
44204;SDS011;30163;42.698;23.344;2022-10-22T02:48:33;122.57;;;48.67;;
44204;SDS011;30163;42.698;23.344;2022-10-22T02:50:58;88.25;;;44.40;;
44204;SDS011;30163;42.698;23.344;2022-10-22T02:53:23;91.40;;;45.08;;
44204;SDS011;30163;42.698;23.344;2022-10-22T02:55:49;104.47;;;46.20;;
44204;SDS011;30163;42.698;23.344;2022-10-22T02:58:14;99.13;;;43.90;;
44204;SDS011;30163;42.698;23.344;2022-10-22T03:00:39;101.25;;;48.13;;
44204;SDS011;30163;42.698;23.344;2022-10-22T03:03:05;110.78;;;49.25;;
44204;SDS011;30163;42.698;23.344;2022-10-22T03:05:30;102.68;;;45.97;;
44204;SDS011;30163;42.698;23.344;2022-10-22T03:07:56;111.38;;;50.20;;
44204;SDS011;30163;42.698;23.344;2022-10-22T03:10:21;107.70;;;52.17;;
44204;SDS011;30163;42.698;23.344;2022-10-22T03:12:46;108.45;;;47.28;;
44204;SDS011;30163;42.698;23.344;2022-10-22T03:15:12;95.40;;;45.80;;
44204;SDS011;30163;42.698;23.344;2022-10-22T03:17:37;106.10;;;48.03;;
44204;SDS011;30163;42.698;23.344;2022-10-22T03:20:03;91.82;;;43.70;;
44204;SDS011;30163;42.698;23.344;2022-10-22T03:22:28;99.53;;;44.53;;
44204;SDS011;30163;42.698;23.344;2022-10-22T03:24:57;87.55;;;42.33;;
44204;SDS011;30163;42.698;23.344;2022-10-22T03:27:25;98.13;;;45.67;;
44204;SDS011;30163;42.698;23.344;2022-10-22T03:29:52;89.18;;;43.53;;
44204;SDS011;30163;42.698;23.344;2022-10-22T03:32:17;100.35;;;43.97;;
44204;SDS011;30163;42.698;23.344;2022-10-22T03:34:43;97.38;;;45.35;;
44204;SDS011;30163;42.698;23.344;2022-10-22T03:37:08;105.68;;;46.03;;
44204;SDS011;30163;42.698;23.344;2022-10-22T03:39:34;95.28;;;46.63;;
44204;SDS011;30163;42.698;23.344;2022-10-22T03:42:00;111.30;;;50.33;;
44204;SDS011;30163;42.698;23.344;2022-10-22T03:44:26;105.28;;;48.63;;
44204;SDS011;30163;42.698;23.344;2022-10-22T03:46:52;93.68;;;47.05;;
44204;SDS011;30163;42.698;23.344;2022-10-22T03:49:17;106.10;;;45.58;;
44204;SDS011;30163;42.698;23.344;2022-10-22T03:51:43;106.10;;;48.78;;
44204;SDS011;30163;42.698;23.344;2022-10-22T03:54:08;100.07;;;47.47;;
44204;SDS011;30163;42.698;23.344;2022-10-22T03:56:34;102.05;;;47.80;;
44204;SDS011;30163;42.698;23.344;2022-10-22T03:58:59;104.60;;;44.47;;
44204;SDS011;30163;42.698;23.344;2022-10-22T04:01:25;86.35;;;43.65;;
44204;SDS011;30163;42.698;23.344;2022-10-22T04:03:51;90.25;;;43.63;;
44204;SDS011;30163;42.698;23.344;2022-10-22T04:06:17;100.65;;;44.95;;
44204;SDS011;30163;42.698;23.344;2022-10-22T04:08:43;90.88;;;43.78;;
44204;SDS011;30163;42.698;23.344;2022-10-22T04:11:09;92.05;;;43.03;;
44204;SDS011;30163;42.698;23.344;2022-10-22T04:13:35;99.38;;;43.45;;
44204;SDS011;30163;42.698;23.344;2022-10-22T04:16:10;95.88;;;42.63;;
44204;SDS011;30163;42.698;23.344;2022-10-22T04:18:38;87.40;;;41.40;;
44204;SDS011;30163;42.698;23.344;2022-10-22T04:21:04;82.70;;;41.50;;
44204;SDS011;30163;42.698;23.344;2022-10-22T04:23:30;80.00;;;40.75;;
44204;SDS011;30163;42.698;23.344;2022-10-22T04:25:59;96.72;;;43.40;;
44204;SDS011;30163;42.698;23.344;2022-10-22T04:28:26;99.18;;;39.42;;
44204;SDS011;30163;42.698;23.344;2022-10-22T04:30:51;87.55;;;40.85;;
44204;SDS011;30163;42.698;23.344;2022-10-22T04:33:17;86.65;;;40.80;;
44204;SDS011;30163;42.698;23.344;2022-10-22T04:35:42;93.28;;;39.28;;
44204;SDS011;30163;42.698;23.344;2022-10-22T04:38:07;77.30;;;38.00;;
44204;SDS011;30163;42.698;23.344;2022-10-22T04:40:33;81.80;;;39.10;;
44204;SDS011;30163;42.698;23.344;2022-10-22T04:42:58;80.72;;;40.08;;
44204;SDS011;30163;42.698;23.344;2022-10-22T04:45:24;77.03;;;36.75;;
44204;SDS011;30163;42.698;23.344;2022-10-22T04:47:49;96.43;;;43.20;;
44204;SDS011;30163;42.698;23.344;2022-10-22T04:50:14;68.45;;;35.72;;
44204;SDS011;30163;42.698;23.344;2022-10-22T04:52:40;77.15;;;38.38;;
44204;SDS011;30163;42.698;23.344;2022-10-22T04:55:05;80.70;;;36.67;;
44204;SDS011;30163;42.698;23.344;2022-10-22T04:57:31;89.25;;;39.42;;
44204;SDS011;30163;42.698;23.344;2022-10-22T04:59:57;83.40;;;33.97;;
44204;SDS011;30163;42.698;23.344;2022-10-22T05:02:22;70.05;;;33.33;;
44204;SDS011;30163;42.698;23.344;2022-10-22T05:04:47;64.85;;;33.05;;
44204;SDS011;30163;42.698;23.344;2022-10-22T05:07:13;64.15;;;34.25;;
44204;SDS011;30163;42.698;23.344;2022-10-22T05:09:38;75.10;;;36.33;;
44204;SDS011;30163;42.698;23.344;2022-10-22T05:12:04;134.65;;;61.63;;
44204;SDS011;30163;42.698;23.344;2022-10-22T05:14:30;95.35;;;39.95;;
44204;SDS011;30163;42.698;23.344;2022-10-22T05:16:56;82.07;;;38.22;;
44204;SDS011;30163;42.698;23.344;2022-10-22T05:19:23;76.47;;;35.25;;
44204;SDS011;30163;42.698;23.344;2022-10-22T05:21:54;77.07;;;31.42;;
44204;SDS011;30163;42.698;23.344;2022-10-22T05:24:21;62.05;;;30.52;;
44204;SDS011;30163;42.698;23.344;2022-10-22T05:26:50;58.70;;;29.70;;
44204;SDS011;30163;42.698;23.344;2022-10-22T05:29:20;65.72;;;30.10;;
44204;SDS011;30163;42.698;23.344;2022-10-22T05:31:45;67.03;;;32.63;;
44204;SDS011;30163;42.698;23.344;2022-10-22T05:34:11;70.68;;;34.88;;
44204;SDS011;30163;42.698;23.344;2022-10-22T05:36:36;76.07;;;31.45;;
44204;SDS011;30163;42.698;23.344;2022-10-22T05:39:02;86.13;;;36.05;;
44204;SDS011;30163;42.698;23.344;2022-10-22T05:41:28;81.57;;;36.53;;
44204;SDS011;30163;42.698;23.344;2022-10-22T05:43:57;74.97;;;36.80;;
44204;SDS011;30163;42.698;23.344;2022-10-22T05:46:24;76.75;;;35.03;;
44204;SDS011;30163;42.698;23.344;2022-10-22T05:48:54;90.00;;;37.85;;
44204;SDS011;30163;42.698;23.344;2022-10-22T05:51:20;76.60;;;36.50;;
44204;SDS011;30163;42.698;23.344;2022-10-22T05:53:49;77.70;;;37.58;;
44204;SDS011;30163;42.698;23.344;2022-10-22T05:56:16;81.45;;;35.72;;
44204;SDS011;30163;42.698;23.344;2022-10-22T05:58:42;90.07;;;40.10;;
44204;SDS011;30163;42.698;23.344;2022-10-22T06:01:11;83.18;;;39.20;;
44204;SDS011;30163;42.698;23.344;2022-10-22T06:03:38;93.35;;;39.75;;
44204;SDS011;30163;42.698;23.344;2022-10-22T06:06:06;91.35;;;41.42;;
44204;SDS011;30163;42.698;23.344;2022-10-22T06:08:40;85.95;;;39.10;;
44204;SDS011;30163;42.698;23.344;2022-10-22T06:11:05;80.13;;;39.67;;
44204;SDS011;30163;42.698;23.344;2022-10-22T06:13:31;78.47;;;37.92;;
44204;SDS011;30163;42.698;23.344;2022-10-22T06:15:57;91.03;;;40.78;;
44204;SDS011;30163;42.698;23.344;2022-10-22T06:18:22;87.80;;;39.72;;
44204;SDS011;30163;42.698;23.344;2022-10-22T06:20:48;79.40;;;37.72;;
44204;SDS011;30163;42.698;23.344;2022-10-22T06:23:13;71.15;;;36.28;;
44204;SDS011;30163;42.698;23.344;2022-10-22T06:25:39;74.03;;;39.10;;
44204;SDS011;30163;42.698;23.344;2022-10-22T06:28:04;73.97;;;35.83;;
44204;SDS011;30163;42.698;23.344;2022-10-22T06:30:30;80.65;;;35.55;;
44204;SDS011;30163;42.698;23.344;2022-10-22T06:32:55;68.15;;;35.85;;
44204;SDS011;30163;42.698;23.344;2022-10-22T06:35:21;78.50;;;36.88;;
44204;SDS011;30163;42.698;23.344;2022-10-22T06:37:46;84.05;;;35.25;;
44204;SDS011;30163;42.698;23.344;2022-10-22T06:40:11;83.80;;;36.78;;
44204;SDS011;30163;42.698;23.344;2022-10-22T06:42:37;77.53;;;35.15;;
44204;SDS011;30163;42.698;23.344;2022-10-22T06:45:02;80.38;;;35.90;;
44204;SDS011;30163;42.698;23.344;2022-10-22T06:47:28;96.82;;;37.40;;
44204;SDS011;30163;42.698;23.344;2022-10-22T06:49:55;84.07;;;38.13;;
44204;SDS011;30163;42.698;23.344;2022-10-22T06:52:21;76.00;;;36.35;;
44204;SDS011;30163;42.698;23.344;2022-10-22T06:54:46;74.03;;;35.85;;
44204;SDS011;30163;42.698;23.344;2022-10-22T06:57:11;75.35;;;38.38;;
44204;SDS011;30163;42.698;23.344;2022-10-22T06:59:37;95.97;;;39.00;;
44204;SDS011;30163;42.698;23.344;2022-10-22T07:02:02;84.55;;;36.63;;
44204;SDS011;30163;42.698;23.344;2022-10-22T07:04:28;83.93;;;38.33;;
44204;SDS011;30163;42.698;23.344;2022-10-22T07:06:53;88.65;;;36.95;;
44204;SDS011;30163;42.698;23.344;2022-10-22T07:09:19;71.78;;;38.35;;
44204;SDS011;30163;42.698;23.344;2022-10-22T07:11:45;101.43;;;37.50;;
44204;SDS011;30163;42.698;23.344;2022-10-22T07:14:11;84.32;;;38.70;;
44204;SDS011;30163;42.698;23.344;2022-10-22T07:16:37;72.32;;;37.63;;
44204;SDS011;30163;42.698;23.344;2022-10-22T07:19:03;76.57;;;38.85;;
44204;SDS011;30163;42.698;23.344;2022-10-22T07:21:29;82.13;;;37.28;;
44204;SDS011;30163;42.698;23.344;2022-10-22T07:23:55;75.18;;;40.25;;
44204;SDS011;30163;42.698;23.344;2022-10-22T07:26:21;74.85;;;37.50;;
44204;SDS011;30163;42.698;23.344;2022-10-22T07:28:49;78.93;;;40.25;;
44204;SDS011;30163;42.698;23.344;2022-10-22T07:31:15;76.72;;;40.15;;
44204;SDS011;30163;42.698;23.344;2022-10-22T07:33:41;77.72;;;37.75;;
44204;SDS011;30163;42.698;23.344;2022-10-22T07:36:08;79.25;;;37.97;;
44204;SDS011;30163;42.698;23.344;2022-10-22T07:38:36;72.43;;;37.22;;
44204;SDS011;30163;42.698;23.344;2022-10-22T07:41:02;68.53;;;35.78;;
44204;SDS011;30163;42.698;23.344;2022-10-22T07:43:28;57.13;;;31.08;;
44204;SDS011;30163;42.698;23.344;2022-10-22T07:45:53;69.43;;;34.45;;
44204;SDS011;30163;42.698;23.344;2022-10-22T07:48:22;76.63;;;33.33;;
44204;SDS011;30163;42.698;23.344;2022-10-22T07:50:48;80.10;;;36.63;;
44204;SDS011;30163;42.698;23.344;2022-10-22T07:53:14;68.38;;;31.48;;
44204;SDS011;30163;42.698;23.344;2022-10-22T07:55:40;77.22;;;37.60;;
44204;SDS011;30163;42.698;23.344;2022-10-22T07:58:05;68.00;;;35.58;;
44204;SDS011;30163;42.698;23.344;2022-10-22T08:00:31;74.75;;;34.30;;
44204;SDS011;30163;42.698;23.344;2022-10-22T08:02:56;60.08;;;31.70;;
44204;SDS011;30163;42.698;23.344;2022-10-22T08:05:22;49.13;;;27.48;;
44204;SDS011;30163;42.698;23.344;2022-10-22T08:07:47;65.03;;;32.90;;
44204;SDS011;30163;42.698;23.344;2022-10-22T08:10:13;71.28;;;32.97;;
44204;SDS011;30163;42.698;23.344;2022-10-22T08:12:38;74.78;;;39.10;;
44204;SDS011;30163;42.698;23.344;2022-10-22T08:15:04;70.28;;;35.67;;
44204;SDS011;30163;42.698;23.344;2022-10-22T08:17:30;78.97;;;36.95;;
44204;SDS011;30163;42.698;23.344;2022-10-22T08:19:55;76.10;;;41.83;;
44204;SDS011;30163;42.698;23.344;2022-10-22T08:22:21;73.47;;;35.20;;
44204;SDS011;30163;42.698;23.344;2022-10-22T08:24:46;79.97;;;36.63;;
44204;SDS011;30163;42.698;23.344;2022-10-22T08:27:12;72.70;;;36.05;;
44204;SDS011;30163;42.698;23.344;2022-10-22T08:29:38;68.13;;;32.55;;
44204;SDS011;30163;42.698;23.344;2022-10-22T08:32:03;70.20;;;32.65;;
44204;SDS011;30163;42.698;23.344;2022-10-22T08:34:29;70.07;;;34.47;;
44204;SDS011;30163;42.698;23.344;2022-10-22T08:36:55;73.57;;;33.28;;
44204;SDS011;30163;42.698;23.344;2022-10-22T08:39:20;67.38;;;33.42;;
44204;SDS011;30163;42.698;23.344;2022-10-22T08:49:37;60.10;;;33.28;;
44204;SDS011;30163;42.698;23.344;2022-10-22T08:52:07;75.85;;;33.97;;
44204;SDS011;30163;42.698;23.344;2022-10-22T08:54:57;63.85;;;33.70;;
44204;SDS011;30163;42.698;23.344;2022-10-22T09:06:31;63.30;;;28.67;;
44204;SDS011;30163;42.698;23.344;2022-10-22T09:08:58;49.15;;;26.38;;
44204;SDS011;30163;42.698;23.344;2022-10-22T09:13:54;44.03;;;25.23;;
44204;SDS011;30163;42.698;23.344;2022-10-22T09:16:33;50.42;;;27.83;;
44204;SDS011;30163;42.698;23.344;2022-10-22T09:24:53;55.78;;;27.67;;
44204;SDS011;30163;42.698;23.344;2022-10-22T09:27:25;63.75;;;28.08;;
44204;SDS011;30163;42.698;23.344;2022-10-22T09:29:52;51.10;;;24.63;;
44204;SDS011;30163;42.698;23.344;2022-10-22T09:32:17;44.42;;;24.60;;
44204;SDS011;30163;42.698;23.344;2022-10-22T09:34:44;57.10;;;24.65;;
44204;SDS011;30163;42.698;23.344;2022-10-22T09:37:10;45.25;;;24.13;;
44204;SDS011;30163;42.698;23.344;2022-10-22T09:39:37;49.78;;;24.90;;
44204;SDS011;30163;42.698;23.344;2022-10-22T09:42:04;53.15;;;25.65;;
44204;SDS011;30163;42.698;23.344;2022-10-22T09:44:34;48.67;;;25.20;;
44204;SDS011;30163;42.698;23.344;2022-10-22T09:47:05;53.75;;;23.25;;
44204;SDS011;30163;42.698;23.344;2022-10-22T09:49:32;46.47;;;24.92;;
44204;SDS011;30163;42.698;23.344;2022-10-22T09:51:59;43.83;;;24.42;;
44204;SDS011;30163;42.698;23.344;2022-10-22T09:57:04;51.63;;;24.77;;
44204;SDS011;30163;42.698;23.344;2022-10-22T09:59:38;48.13;;;23.33;;
44204;SDS011;30163;42.698;23.344;2022-10-22T10:02:10;38.45;;;22.83;;
44204;SDS011;30163;42.698;23.344;2022-10-22T10:04:45;44.90;;;24.13;;
44204;SDS011;30163;42.698;23.344;2022-10-22T10:07:15;60.78;;;23.88;;
44204;SDS011;30163;42.698;23.344;2022-10-22T10:09:48;52.55;;;23.92;;
44204;SDS011;30163;42.698;23.344;2022-10-22T10:12:31;45.20;;;23.83;;
44204;SDS011;30163;42.698;23.344;2022-10-22T10:15:19;40.80;;;23.80;;
44204;SDS011;30163;42.698;23.344;2022-10-22T10:18:03;38.40;;;22.23;;
44204;SDS011;30163;42.698;23.344;2022-10-22T10:26:48;40.25;;;22.63;;
44204;SDS011;30163;42.698;23.344;2022-10-22T10:30:10;41.92;;;22.67;;
44204;SDS011;30163;42.698;23.344;2022-10-22T10:32:29;45.70;;;22.52;;
44204;SDS011;30163;42.698;23.344;2022-10-22T10:38:47;49.05;;;22.60;;
44204;SDS011;30163;42.698;23.344;2022-10-22T10:44:24;46.33;;;21.98;;
44204;SDS011;30163;42.698;23.344;2022-10-22T10:47:06;56.45;;;23.67;;
44204;SDS011;30163;42.698;23.344;2022-10-22T10:49:44;41.15;;;21.42;;
44204;SDS011;30163;42.698;23.344;2022-10-22T11:00:56;42.47;;;22.10;;
44204;SDS011;30163;42.698;23.344;2022-10-22T11:06:06;50.10;;;22.55;;
44204;SDS011;30163;42.698;23.344;2022-10-22T11:08:43;38.83;;;21.40;;
44204;SDS011;30163;42.698;23.344;2022-10-22T11:11:15;35.38;;;21.02;;
44204;SDS011;30163;42.698;23.344;2022-10-22T11:24:40;43.75;;;18.77;;
44204;SDS011;30163;42.698;23.344;2022-10-22T11:30:00;31.98;;;19.00;;
44204;SDS011;30163;42.698;23.344;2022-10-22T11:32:27;30.87;;;18.53;;
44204;SDS011;30163;42.698;23.344;2022-10-22T11:34:53;40.13;;;24.42;;
44204;SDS011;30163;42.698;23.344;2022-10-22T11:37:21;41.50;;;19.55;;
44204;SDS011;30163;42.698;23.344;2022-10-22T11:39:58;42.38;;;19.88;;
44204;SDS011;30163;42.698;23.344;2022-10-22T11:42:35;41.83;;;17.98;;
44204;SDS011;30163;42.698;23.344;2022-10-22T11:47:56;34.70;;;18.45;;
44204;SDS011;30163;42.698;23.344;2022-10-22T11:55:49;38.92;;;17.17;;
44204;SDS011;30163;42.698;23.344;2022-10-22T12:00:52;52.10;;;18.70;;
44204;SDS011;30163;42.698;23.344;2022-10-22T12:08:42;35.90;;;16.92;;
44204;SDS011;30163;42.698;23.344;2022-10-22T12:16:26;52.60;;;23.50;;
44204;SDS011;30163;42.698;23.344;2022-10-22T12:18:54;42.53;;;19.23;;
44204;SDS011;30163;42.698;23.344;2022-10-22T12:21:22;40.75;;;17.27;;
44204;SDS011;30163;42.698;23.344;2022-10-22T12:23:48;31.58;;;15.82;;
44204;SDS011;30163;42.698;23.344;2022-10-22T12:26:25;34.08;;;17.20;;
44204;SDS011;30163;42.698;23.344;2022-10-22T12:28:56;36.08;;;16.25;;
44204;SDS011;30163;42.698;23.344;2022-10-22T12:31:22;32.35;;;15.00;;
44204;SDS011;30163;42.698;23.344;2022-10-22T12:33:54;30.17;;;14.88;;
44204;SDS011;30163;42.698;23.344;2022-10-22T12:38:45;43.23;;;15.93;;
44204;SDS011;30163;42.698;23.344;2022-10-22T12:41:11;37.33;;;15.40;;
44204;SDS011;30163;42.698;23.344;2022-10-22T12:43:37;26.42;;;14.25;;
44204;SDS011;30163;42.698;23.344;2022-10-22T12:46:03;33.13;;;15.20;;
44204;SDS011;30163;42.698;23.344;2022-10-22T12:48:30;49.70;;;15.57;;
44204;SDS011;30163;42.698;23.344;2022-10-22T12:50:59;29.73;;;14.88;;
44204;SDS011;30163;42.698;23.344;2022-10-22T12:55:54;40.58;;;15.02;;
44204;SDS011;30163;42.698;23.344;2022-10-22T12:58:21;26.08;;;12.95;;
44204;SDS011;30163;42.698;23.344;2022-10-22T13:00:53;36.17;;;14.18;;
44204;SDS011;30163;42.698;23.344;2022-10-22T13:03:40;40.05;;;18.77;;
44204;SDS011;30163;42.698;23.344;2022-10-22T13:08:54;43.17;;;14.55;;
44204;SDS011;30163;42.698;23.344;2022-10-22T13:11:21;36.85;;;14.05;;
44204;SDS011;30163;42.698;23.344;2022-10-22T13:13:46;26.35;;;13.52;;
44204;SDS011;30163;42.698;23.344;2022-10-22T13:16:13;29.83;;;12.98;;
44204;SDS011;30163;42.698;23.344;2022-10-22T13:18:38;44.67;;;13.35;;
44204;SDS011;30163;42.698;23.344;2022-10-22T13:21:04;38.67;;;13.05;;
44204;SDS011;30163;42.698;23.344;2022-10-22T13:23:31;38.78;;;12.63;;
44204;SDS011;30163;42.698;23.344;2022-10-22T13:28:39;23.80;;;12.93;;
44204;SDS011;30163;42.698;23.344;2022-10-22T13:31:08;39.45;;;11.85;;
44204;SDS011;30163;42.698;23.344;2022-10-22T13:33:39;28.88;;;10.88;;
44204;SDS011;30163;42.698;23.344;2022-10-22T13:36:06;28.98;;;11.20;;
44204;SDS011;30163;42.698;23.344;2022-10-22T13:38:35;27.90;;;11.63;;
44204;SDS011;30163;42.698;23.344;2022-10-22T13:41:01;28.98;;;12.55;;
44204;SDS011;30163;42.698;23.344;2022-10-22T13:43:28;29.98;;;12.90;;
44204;SDS011;30163;42.698;23.344;2022-10-22T13:45:54;37.85;;;13.07;;
44204;SDS011;30163;42.698;23.344;2022-10-22T13:48:22;26.80;;;12.23;;
44204;SDS011;30163;42.698;23.344;2022-10-22T13:50:49;30.40;;;12.50;;
44204;SDS011;30163;42.698;23.344;2022-10-22T13:53:15;30.58;;;11.90;;
44204;SDS011;30163;42.698;23.344;2022-10-22T13:55:43;30.23;;;13.90;;
44204;SDS011;30163;42.698;23.344;2022-10-22T13:58:12;33.05;;;12.98;;
44204;SDS011;30163;42.698;23.344;2022-10-22T14:00:40;24.00;;;11.15;;
44204;SDS011;30163;42.698;23.344;2022-10-22T14:03:10;33.38;;;13.07;;
44204;SDS011;30163;42.698;23.344;2022-10-22T14:05:37;41.85;;;11.45;;
44204;SDS011;30163;42.698;23.344;2022-10-22T14:08:02;32.28;;;11.95;;
44204;SDS011;30163;42.698;23.344;2022-10-22T14:10:28;35.33;;;12.45;;
44204;SDS011;30163;42.698;23.344;2022-10-22T14:12:53;46.47;;;13.77;;
44204;SDS011;30163;42.698;23.344;2022-10-22T14:15:20;28.23;;;12.43;;
44204;SDS011;30163;42.698;23.344;2022-10-22T14:17:52;56.60;;;14.55;;
44204;SDS011;30163;42.698;23.344;2022-10-22T14:20:19;32.47;;;13.73;;
44204;SDS011;30163;42.698;23.344;2022-10-22T14:22:47;30.13;;;12.95;;
44204;SDS011;30163;42.698;23.344;2022-10-22T14:25:14;34.28;;;13.45;;
44204;SDS011;30163;42.698;23.344;2022-10-22T14:27:44;31.05;;;13.80;;
44204;SDS011;30163;42.698;23.344;2022-10-22T14:30:13;29.38;;;12.85;;
44204;SDS011;30163;42.698;23.344;2022-10-22T14:32:49;29.75;;;13.73;;
44204;SDS011;30163;42.698;23.344;2022-10-22T14:35:16;30.60;;;14.20;;
44204;SDS011;30163;42.698;23.344;2022-10-22T14:37:43;31.90;;;12.82;;
44204;SDS011;30163;42.698;23.344;2022-10-22T14:40:11;34.60;;;12.48;;
44204;SDS011;30163;42.698;23.344;2022-10-22T14:42:40;39.35;;;13.02;;
44204;SDS011;30163;42.698;23.344;2022-10-22T14:45:11;34.80;;;13.65;;
44204;SDS011;30163;42.698;23.344;2022-10-22T14:47:45;36.90;;;13.40;;
44204;SDS011;30163;42.698;23.344;2022-10-22T14:50:10;32.25;;;13.00;;
44204;SDS011;30163;42.698;23.344;2022-10-22T14:52:37;30.10;;;13.90;;
44204;SDS011;30163;42.698;23.344;2022-10-22T14:55:03;38.67;;;14.18;;
44204;SDS011;30163;42.698;23.344;2022-10-22T14:57:29;23.67;;;13.80;;
44204;SDS011;30163;42.698;23.344;2022-10-22T14:59:54;34.40;;;14.45;;
44204;SDS011;30163;42.698;23.344;2022-10-22T15:02:20;47.35;;;13.85;;
44204;SDS011;30163;42.698;23.344;2022-10-22T15:04:46;31.45;;;14.82;;
44204;SDS011;30163;42.698;23.344;2022-10-22T15:07:12;39.55;;;16.27;;
44204;SDS011;30163;42.698;23.344;2022-10-22T15:09:38;48.42;;;15.60;;
44204;SDS011;30163;42.698;23.344;2022-10-22T15:12:03;37.15;;;16.55;;
44204;SDS011;30163;42.698;23.344;2022-10-22T15:14:29;34.25;;;14.43;;
44204;SDS011;30163;42.698;23.344;2022-10-22T15:16:54;32.83;;;14.23;;
44204;SDS011;30163;42.698;23.344;2022-10-22T15:19:20;35.50;;;16.13;;
44204;SDS011;30163;42.698;23.344;2022-10-22T15:21:45;53.67;;;16.75;;
44204;SDS011;30163;42.698;23.344;2022-10-22T15:24:10;58.45;;;14.63;;
44204;SDS011;30163;42.698;23.344;2022-10-22T15:26:36;41.38;;;15.45;;
44204;SDS011;30163;42.698;23.344;2022-10-22T15:29:02;43.33;;;14.95;;
44204;SDS011;30163;42.698;23.344;2022-10-22T15:34:27;46.58;;;14.80;;
44204;SDS011;30163;42.698;23.344;2022-10-22T15:36:55;30.15;;;16.90;;
44204;SDS011;30163;42.698;23.344;2022-10-22T15:39:21;54.78;;;17.75;;
44204;SDS011;30163;42.698;23.344;2022-10-22T15:41:48;46.60;;;17.77;;
44204;SDS011;30163;42.698;23.344;2022-10-22T15:44:15;39.42;;;16.90;;
44204;SDS011;30163;42.698;23.344;2022-10-22T15:46:42;40.10;;;16.67;;
44204;SDS011;30163;42.698;23.344;2022-10-22T15:49:07;36.95;;;19.08;;
44204;SDS011;30163;42.698;23.344;2022-10-22T15:51:32;52.13;;;20.83;;
44204;SDS011;30163;42.698;23.344;2022-10-22T15:53:58;46.95;;;21.02;;
44204;SDS011;30163;42.698;23.344;2022-10-22T15:56:24;41.65;;;21.30;;
44204;SDS011;30163;42.698;23.344;2022-10-22T15:58:55;51.95;;;17.60;;
44204;SDS011;30163;42.698;23.344;2022-10-22T16:01:22;43.13;;;19.00;;
44204;SDS011;30163;42.698;23.344;2022-10-22T16:03:49;33.53;;;17.67;;
44204;SDS011;30163;42.698;23.344;2022-10-22T16:06:17;48.13;;;19.13;;
44204;SDS011;30163;42.698;23.344;2022-10-22T16:08:43;57.75;;;21.27;;
44204;SDS011;30163;42.698;23.344;2022-10-22T16:11:09;53.72;;;22.10;;
44204;SDS011;30163;42.698;23.344;2022-10-22T16:13:34;68.38;;;24.00;;
44204;SDS011;30163;42.698;23.344;2022-10-22T16:16:03;46.38;;;20.35;;